sensor_id;sensor_type;location;lat;lon;timestamp;pressure;altitude;pressure_sealevel;temperature;humidity
7333;BME280;3707;43.618;25.342;2023-04-01T00:00:46;99163.78;;;15.03;69.63
7333;BME280;3707;43.618;25.342;2023-04-01T00:03:13;99169.22;;;14.91;70.27
7333;BME280;3707;43.618;25.342;2023-04-01T00:05:40;99167.50;;;14.88;70.52
7333;BME280;3707;43.618;25.342;2023-04-01T00:08:07;99147.75;;;14.75;71.13
7333;BME280;3707;43.618;25.342;2023-04-01T00:10:34;99159.81;;;14.82;71.56
7333;BME280;3707;43.618;25.342;2023-04-01T00:13:01;99042.66;;;14.13;71.69
7333;BME280;3707;43.618;25.342;2023-04-01T00:15:27;99157.13;;;14.86;71.72
7333;BME280;3707;43.618;25.342;2023-04-01T00:17:56;99157.13;;;14.85;72.46
7333;BME280;3707;43.618;25.342;2023-04-01T00:20:22;99140.72;;;14.78;71.72
7333;BME280;3707;43.618;25.342;2023-04-01T00:22:49;99152.75;;;14.87;72.30
7333;BME280;3707;43.618;25.342;2023-04-01T00:25:16;99108.66;;;14.70;72.66
7333;BME280;3707;43.618;25.342;2023-04-01T00:27:44;99120.81;;;14.73;73.17
7333;BME280;3707;43.618;25.342;2023-04-01T00:30:11;99136.31;;;14.83;72.54
7333;BME280;3707;43.618;25.342;2023-04-01T00:32:38;99133.66;;;14.85;72.85
7333;BME280;3707;43.618;25.342;2023-04-01T00:35:07;99141.22;;;14.99;72.78
7333;BME280;3707;43.618;25.342;2023-04-01T00:37:35;99133.50;;;14.94;72.20
7333;BME280;3707;43.618;25.342;2023-04-01T00:40:02;99127.44;;;14.92;72.40
7333;BME280;3707;43.618;25.342;2023-04-01T00:42:30;99129.09;;;14.96;71.57
7333;BME280;3707;43.618;25.342;2023-04-01T00:44:57;99124.75;;;14.95;72.10
7333;BME280;3707;43.618;25.342;2023-04-01T00:47:25;99123.00;;;14.96;72.36
7333;BME280;3707;43.618;25.342;2023-04-01T00:49:54;99110.88;;;14.93;73.01
7333;BME280;3707;43.618;25.342;2023-04-01T00:52:24;99115.13;;;14.99;72.58
7333;BME280;3707;43.618;25.342;2023-04-01T00:54:55;99109.28;;;14.86;73.08
7333;BME280;3707;43.618;25.342;2023-04-01T00:57:29;99106.53;;;14.94;73.17
7333;BME280;3707;43.618;25.342;2023-04-01T00:59:57;99085.06;;;14.78;73.28
7333;BME280;3707;43.618;25.342;2023-04-01T01:02:24;99103.19;;;14.87;72.94
7333;BME280;3707;43.618;25.342;2023-04-01T01:04:51;99101.53;;;14.81;73.25
7333;BME280;3707;43.618;25.342;2023-04-01T01:07:27;99090.16;;;14.84;72.63
7333;BME280;3707;43.618;25.342;2023-04-01T01:10:03;99098.72;;;14.92;72.61
7333;BME280;3707;43.618;25.342;2023-04-01T01:12:40;99077.84;;;14.92;72.25
7333;BME280;3707;43.618;25.342;2023-04-01T01:15:12;99066.66;;;14.84;72.94
7333;BME280;3707;43.618;25.342;2023-04-01T01:17:52;99076.22;;;14.85;72.97
7333;BME280;3707;43.618;25.342;2023-04-01T01:20:48;99071.94;;;14.81;73.16
7333;BME280;3707;43.618;25.342;2023-04-01T01:23:41;99074.69;;;14.75;74.25
7333;BME280;3707;43.618;25.342;2023-04-01T01:26:33;99073.06;;;14.69;74.86
7333;BME280;3707;43.618;25.342;2023-04-01T01:29:08;99067.22;;;14.55;76.05
7333;BME280;3707;43.618;25.342;2023-04-01T01:31:44;99060.22;;;14.56;76.09
7333;BME280;3707;43.618;25.342;2023-04-01T01:34:21;99054.06;;;14.60;75.63
7333;BME280;3707;43.618;25.342;2023-04-01T01:36:54;99052.44;;;14.54;76.45
7333;BME280;3707;43.618;25.342;2023-04-01T01:39:24;99044.81;;;14.42;77.13
7333;BME280;3707;43.618;25.342;2023-04-01T01:41:53;99052.75;;;14.37;78.05
7333;BME280;3707;43.618;25.342;2023-04-01T01:44:23;99049.22;;;14.38;78.24
7333;BME280;3707;43.618;25.342;2023-04-01T01:46:52;99046.63;;;14.40;77.23
7333;BME280;3707;43.618;25.342;2023-04-01T01:49:20;99047.34;;;14.47;77.15
7333;BME280;3707;43.618;25.342;2023-04-01T01:51:47;98976.78;;;14.04;77.45
7333;BME280;3707;43.618;25.342;2023-04-01T01:54:17;98988.78;;;14.15;77.21
7333;BME280;3707;43.618;25.342;2023-04-01T01:56:46;99036.09;;;14.45;77.85
7333;BME280;3707;43.618;25.342;2023-04-01T01:59:16;99022.34;;;14.33;77.69
7333;BME280;3707;43.618;25.342;2023-04-01T02:01:48;99041.28;;;14.46;78.11
7333;BME280;3707;43.618;25.342;2023-04-01T02:04:17;99029.22;;;14.41;78.25
7333;BME280;3707;43.618;25.342;2023-04-01T02:06:49;99019.72;;;14.36;78.76
7333;BME280;3707;43.618;25.342;2023-04-01T02:09:19;98992.13;;;14.20;78.61
7333;BME280;3707;43.618;25.342;2023-04-01T02:11:48;99007.59;;;14.32;79.24
7333;BME280;3707;43.618;25.342;2023-04-01T02:14:17;99011.94;;;14.32;79.86
7333;BME280;3707;43.618;25.342;2023-04-01T02:16:49;99000.59;;;14.37;78.98
7333;BME280;3707;43.618;25.342;2023-04-01T02:19:20;99007.44;;;14.42;78.59
7333;BME280;3707;43.618;25.342;2023-04-01T02:21:50;98977.31;;;14.24;78.84
7333;BME280;3707;43.618;25.342;2023-04-01T02:24:20;98941.19;;;14.04;78.57
7333;BME280;3707;43.618;25.342;2023-04-01T02:26:50;98998.03;;;14.33;78.87
7333;BME280;3707;43.618;25.342;2023-04-01T02:29:19;98986.09;;;14.18;79.11
7333;BME280;3707;43.618;25.342;2023-04-01T02:31:47;98982.75;;;14.10;80.53
7333;BME280;3707;43.618;25.342;2023-04-01T02:34:15;98983.69;;;14.06;80.11
7333;BME280;3707;43.618;25.342;2023-04-01T02:36:42;98987.22;;;14.05;81.43
7333;BME280;3707;43.618;25.342;2023-04-01T02:39:09;98996.84;;;14.00;81.91
7333;BME280;3707;43.618;25.342;2023-04-01T02:41:40;98993.38;;;14.00;81.93
7333;BME280;3707;43.618;25.342;2023-04-01T02:44:08;98991.03;;;13.83;82.75
7333;BME280;3707;43.618;25.342;2023-04-01T02:46:35;98999.72;;;13.83;82.88
7333;BME280;3707;43.618;25.342;2023-04-01T02:49:02;98995.28;;;13.88;83.35
7333;BME280;3707;43.618;25.342;2023-04-01T02:51:29;98997.13;;;13.82;83.25
7333;BME280;3707;43.618;25.342;2023-04-01T02:53:56;98991.88;;;13.85;83.09
7333;BME280;3707;43.618;25.342;2023-04-01T02:56:22;98975.69;;;13.65;83.97
7333;BME280;3707;43.618;25.342;2023-04-01T02:58:51;98989.19;;;13.88;82.74
7333;BME280;3707;43.618;25.342;2023-04-01T03:01:18;98988.44;;;13.83;82.61
7333;BME280;3707;43.618;25.342;2023-04-01T03:03:45;98965.97;;;13.74;82.69
7333;BME280;3707;43.618;25.342;2023-04-01T03:06:13;98986.56;;;13.91;81.77
7333;BME280;3707;43.618;25.342;2023-04-01T03:08:40;98982.13;;;13.96;80.57
7333;BME280;3707;43.618;25.342;2023-04-01T03:11:09;98986.31;;;14.06;80.33
7333;BME280;3707;43.618;25.342;2023-04-01T03:13:35;98961.28;;;13.96;79.46
7333;BME280;3707;43.618;25.342;2023-04-01T03:16:04;98978.34;;;14.15;79.38
7333;BME280;3707;43.618;25.342;2023-04-01T03:18:32;98974.13;;;14.07;79.59
7333;BME280;3707;43.618;25.342;2023-04-01T03:21:12;98977.50;;;14.13;79.71
7333;BME280;3707;43.618;25.342;2023-04-01T03:23:39;98956.81;;;14.03;78.52
7333;BME280;3707;43.618;25.342;2023-04-01T03:26:06;98959.19;;;14.16;76.69
7333;BME280;3707;43.618;25.342;2023-04-01T03:28:33;98971.97;;;14.31;75.17
7333;BME280;3707;43.618;25.342;2023-04-01T03:30:59;98964.09;;;14.37;73.35
7333;BME280;3707;43.618;25.342;2023-04-01T03:33:28;98955.25;;;14.45;73.07
7333;BME280;3707;43.618;25.342;2023-04-01T03:35:54;98965.56;;;14.51;71.76
7333;BME280;3707;43.618;25.342;2023-04-01T03:38:21;98964.50;;;14.59;70.94
7333;BME280;3707;43.618;25.342;2023-04-01T03:40:48;98966.97;;;14.67;70.00
7333;BME280;3707;43.618;25.342;2023-04-01T03:43:15;98965.03;;;14.78;68.30
7333;BME280;3707;43.618;25.342;2023-04-01T03:45:44;98966.56;;;14.88;68.22
7333;BME280;3707;43.618;25.342;2023-04-01T03:48:10;98954.47;;;14.84;66.67
7333;BME280;3707;43.618;25.342;2023-04-01T03:50:38;98962.81;;;15.01;65.26
7333;BME280;3707;43.618;25.342;2023-04-01T03:53:05;98953.97;;;15.08;63.59
7333;BME280;3707;43.618;25.342;2023-04-01T03:55:32;98963.03;;;15.30;61.67
7333;BME280;3707;43.618;25.342;2023-04-01T03:57:59;98956.56;;;15.50;59.94
7333;BME280;3707;43.618;25.342;2023-04-01T04:00:27;98963.00;;;15.72;58.92
7333;BME280;3707;43.618;25.342;2023-04-01T04:02:54;98939.50;;;15.72;58.29
7333;BME280;3707;43.618;25.342;2023-04-01T04:05:22;98953.75;;;15.94;58.03
7333;BME280;3707;43.618;25.342;2023-04-01T04:07:50;98945.94;;;15.93;57.46
7333;BME280;3707;43.618;25.342;2023-04-01T04:10:17;98951.00;;;15.99;57.20
7333;BME280;3707;43.618;25.342;2023-04-01T04:12:44;98953.50;;;16.03;57.43
7333;BME280;3707;43.618;25.342;2023-04-01T04:15:11;98973.53;;;16.04;57.16
7333;BME280;3707;43.618;25.342;2023-04-01T04:17:38;98959.00;;;15.94;57.38
7333;BME280;3707;43.618;25.342;2023-04-01T04:20:06;98966.06;;;15.89;59.20
7333;BME280;3707;43.618;25.342;2023-04-01T04:22:34;98964.59;;;15.77;59.89
7333;BME280;3707;43.618;25.342;2023-04-01T04:25:02;98970.34;;;15.92;59.94
7333;BME280;3707;43.618;25.342;2023-04-01T04:27:29;98963.41;;;15.55;62.38
7333;BME280;3707;43.618;25.342;2023-04-01T04:29:56;98982.88;;;15.41;67.80
7333;BME280;3707;43.618;25.342;2023-04-01T04:32:23;98981.78;;;15.09;74.45
7333;BME280;3707;43.618;25.342;2023-04-01T04:34:50;98982.03;;;14.97;74.11
7333;BME280;3707;43.618;25.342;2023-04-01T04:37:16;98977.13;;;14.82;76.89
7333;BME280;3707;43.618;25.342;2023-04-01T04:39:43;98979.34;;;14.59;82.38
7333;BME280;3707;43.618;25.342;2023-04-01T04:42:11;98975.94;;;14.54;84.54
7333;BME280;3707;43.618;25.342;2023-04-01T04:44:39;98984.97;;;14.34;84.46
7333;BME280;3707;43.618;25.342;2023-04-01T04:47:06;98978.22;;;14.21;84.99
7333;BME280;3707;43.618;25.342;2023-04-01T04:49:32;98950.88;;;13.96;86.03
7333;BME280;3707;43.618;25.342;2023-04-01T04:51:59;98961.78;;;13.66;91.69
7333;BME280;3707;43.618;25.342;2023-04-01T04:54:26;98968.81;;;13.61;93.43
7333;BME280;3707;43.618;25.342;2023-04-01T04:56:53;98981.66;;;13.73;93.37
7333;BME280;3707;43.618;25.342;2023-04-01T04:59:22;98971.13;;;13.80;92.73
7333;BME280;3707;43.618;25.342;2023-04-01T05:01:48;98967.06;;;13.60;93.81
7333;BME280;3707;43.618;25.342;2023-04-01T05:04:15;98953.19;;;13.61;94.40
7333;BME280;3707;43.618;25.342;2023-04-01T05:06:43;98965.03;;;13.80;93.89
7333;BME280;3707;43.618;25.342;2023-04-01T05:09:10;98966.72;;;13.84;93.38
7333;BME280;3707;43.618;25.342;2023-04-01T05:11:36;98963.06;;;13.94;92.12
7333;BME280;3707;43.618;25.342;2023-04-01T05:14:03;98950.88;;;13.96;90.81
7333;BME280;3707;43.618;25.342;2023-04-01T05:16:31;98943.78;;;14.04;92.18
7333;BME280;3707;43.618;25.342;2023-04-01T05:18:58;98964.59;;;14.06;92.46
7333;BME280;3707;43.618;25.342;2023-04-01T05:21:25;98964.31;;;14.22;90.83
7333;BME280;3707;43.618;25.342;2023-04-01T05:23:52;98968.59;;;14.25;91.68
7333;BME280;3707;43.618;25.342;2023-04-01T05:26:19;98979.75;;;14.34;100.00
7333;BME280;3707;43.618;25.342;2023-04-01T05:28:45;98898.13;;;13.83;95.91
7333;BME280;3707;43.618;25.342;2023-04-01T05:31:12;98964.38;;;14.19;96.85
7333;BME280;3707;43.618;25.342;2023-04-01T05:33:41;98979.75;;;14.34;96.06
7333;BME280;3707;43.618;25.342;2023-04-01T05:36:09;98964.91;;;14.39;95.07
7333;BME280;3707;43.618;25.342;2023-04-01T05:38:36;98963.84;;;14.50;98.42
7333;BME280;3707;43.618;25.342;2023-04-01T05:41:03;98955.38;;;14.81;100.00
7333;BME280;3707;43.618;25.342;2023-04-01T05:43:30;98952.69;;;14.86;96.38
7333;BME280;3707;43.618;25.342;2023-04-01T05:45:57;98943.78;;;14.96;89.25
7333;BME280;3707;43.618;25.342;2023-04-01T05:48:24;98955.66;;;15.09;86.43
7333;BME280;3707;43.618;25.342;2023-04-01T05:50:52;98943.84;;;15.33;72.71
7333;BME280;3707;43.618;25.342;2023-04-01T05:53:19;98942.38;;;15.60;66.38
7333;BME280;3707;43.618;25.342;2023-04-01T05:55:45;98941.50;;;15.96;62.44
7333;BME280;3707;43.618;25.342;2023-04-01T05:58:12;98942.69;;;16.18;60.62
7333;BME280;3707;43.618;25.342;2023-04-01T06:00:39;98938.75;;;16.34;59.33
7333;BME280;3707;43.618;25.342;2023-04-01T06:03:06;98938.06;;;16.62;58.58
7333;BME280;3707;43.618;25.342;2023-04-01T06:05:38;98949.09;;;16.73;58.94
7333;BME280;3707;43.618;25.342;2023-04-01T06:08:10;98949.78;;;16.78;64.11
7333;BME280;3707;43.618;25.342;2023-04-01T06:10:45;98939.41;;;16.75;66.62
7333;BME280;3707;43.618;25.342;2023-04-01T06:13:23;98948.56;;;16.59;63.00
7333;BME280;3707;43.618;25.342;2023-04-01T06:16:02;98939.97;;;16.54;65.91
7333;BME280;3707;43.618;25.342;2023-04-01T06:18:54;98946.69;;;16.65;62.17
7333;BME280;3707;43.618;25.342;2023-04-01T06:21:37;98953.38;;;16.74;61.66
7333;BME280;3707;43.618;25.342;2023-04-01T06:24:20;98956.28;;;16.65;68.03
7333;BME280;3707;43.618;25.342;2023-04-01T06:27:01;98961.00;;;16.51;73.87
7333;BME280;3707;43.618;25.342;2023-04-01T06:29:57;98959.06;;;16.25;77.45
7333;BME280;3707;43.618;25.342;2023-04-01T06:32:51;98959.22;;;16.19;70.49
7333;BME280;3707;43.618;25.342;2023-04-01T06:35:51;98955.59;;;16.24;65.89
7333;BME280;3707;43.618;25.342;2023-04-01T06:38:39;98953.44;;;16.40;63.94
7333;BME280;3707;43.618;25.342;2023-04-01T06:41:24;98958.53;;;16.45;61.50
7333;BME280;3707;43.618;25.342;2023-04-01T06:43:59;98946.03;;;16.57;71.71
7333;BME280;3707;43.618;25.342;2023-04-01T06:46:40;98949.34;;;16.62;63.67
7333;BME280;3707;43.618;25.342;2023-04-01T06:49:36;98950.38;;;16.57;64.08
7333;BME280;3707;43.618;25.342;2023-04-01T06:52:14;98940.69;;;16.60;65.63
7333;BME280;3707;43.618;25.342;2023-04-01T06:54:47;98936.63;;;16.49;67.86
7333;BME280;3707;43.618;25.342;2023-04-01T06:57:23;98949.59;;;16.53;68.28
7333;BME280;3707;43.618;25.342;2023-04-01T06:59:51;98946.38;;;16.44;66.75
7333;BME280;3707;43.618;25.342;2023-04-01T07:02:26;98943.47;;;16.53;67.82
7333;BME280;3707;43.618;25.342;2023-04-01T07:04:56;98949.84;;;16.44;67.94
7333;BME280;3707;43.618;25.342;2023-04-01T07:07:31;98915.00;;;16.42;68.84
7333;BME280;3707;43.618;25.342;2023-04-01T07:10:05;98962.31;;;16.67;69.27
7333;BME280;3707;43.618;25.342;2023-04-01T07:12:43;98949.50;;;16.58;71.98
7333;BME280;3707;43.618;25.342;2023-04-01T07:15:17;98918.28;;;16.49;73.30
7333;BME280;3707;43.618;25.342;2023-04-01T07:17:48;98953.19;;;16.81;76.70
7333;BME280;3707;43.618;25.342;2023-04-01T07:20:20;98942.38;;;16.94;73.38
7333;BME280;3707;43.618;25.342;2023-04-01T07:22:50;98935.44;;;16.91;72.75
7333;BME280;3707;43.618;25.342;2023-04-01T07:25:21;98935.63;;;17.14;77.80
7333;BME280;3707;43.618;25.342;2023-04-01T07:27:52;98932.34;;;17.37;82.30
7333;BME280;3707;43.618;25.342;2023-04-01T07:30:22;98919.25;;;17.37;79.25
7333;BME280;3707;43.618;25.342;2023-04-01T07:32:53;98926.78;;;17.46;82.19
7333;BME280;3707;43.618;25.342;2023-04-01T07:35:29;98926.44;;;17.01;86.49
7333;BME280;3707;43.618;25.342;2023-04-01T07:38:15;98932.66;;;17.26;86.92
7333;BME280;3707;43.618;25.342;2023-04-01T07:40:49;98927.78;;;17.14;86.51
7333;BME280;3707;43.618;25.342;2023-04-01T07:43:39;98917.66;;;17.59;86.39
7333;BME280;3707;43.618;25.342;2023-04-01T07:46:17;98925.31;;;17.93;82.81
7333;BME280;3707;43.618;25.342;2023-04-01T07:48:51;98925.19;;;17.96;85.75
7333;BME280;3707;43.618;25.342;2023-04-01T07:51:24;98903.00;;;17.80;83.22
7333;BME280;3707;43.618;25.342;2023-04-01T07:54:00;98929.63;;;18.70;82.70
7333;BME280;3707;43.618;25.342;2023-04-01T07:56:35;98911.63;;;19.29;76.83
7333;BME280;3707;43.618;25.342;2023-04-01T07:59:13;98930.84;;;20.16;67.86
7333;BME280;3707;43.618;25.342;2023-04-01T08:01:48;98925.63;;;20.57;62.95
7333;BME280;3707;43.618;25.342;2023-04-01T08:04:27;98925.00;;;21.09;59.91
7333;BME280;3707;43.618;25.342;2023-04-01T08:07:05;98912.34;;;21.17;60.94
7333;BME280;3707;43.618;25.342;2023-04-01T08:09:41;98925.63;;;21.52;59.20
7333;BME280;3707;43.618;25.342;2023-04-01T08:12:21;98904.53;;;20.77;59.42
7333;BME280;3707;43.618;25.342;2023-04-01T08:14:58;98891.19;;;20.80;59.28
7333;BME280;3707;43.618;25.342;2023-04-01T08:17:31;98921.50;;;20.90;58.03
7333;BME280;3707;43.618;25.342;2023-04-01T08:20:14;98915.84;;;19.98;60.51
7333;BME280;3707;43.618;25.342;2023-04-01T08:22:48;98913.91;;;19.82;60.66
7333;BME280;3707;43.618;25.342;2023-04-01T08:25:20;98908.19;;;19.72;62.73
7333;BME280;3707;43.618;25.342;2023-04-01T08:27:51;98902.50;;;19.38;62.13
7333;BME280;3707;43.618;25.342;2023-04-01T08:30:24;98909.47;;;19.17;65.98
7333;BME280;3707;43.618;25.342;2023-04-01T08:32:55;98909.63;;;19.36;73.94
7333;BME280;3707;43.618;25.342;2023-04-01T08:35:27;98882.13;;;19.44;75.80
7333;BME280;3707;43.618;25.342;2023-04-01T08:38:01;98910.31;;;19.62;70.13
7333;BME280;3707;43.618;25.342;2023-04-01T08:40:55;98857.38;;;19.50;67.82
7333;BME280;3707;43.618;25.342;2023-04-01T08:46:23;98891.13;;;19.37;65.33
7333;BME280;3707;43.618;25.342;2023-04-01T08:49:06;98901.66;;;19.37;65.26
7333;BME280;3707;43.618;25.342;2023-04-01T08:52:00;98898.78;;;19.21;66.61
7333;BME280;3707;43.618;25.342;2023-04-01T08:57:37;98904.00;;;19.66;69.09
7333;BME280;3707;43.618;25.342;2023-04-01T09:00:19;98899.97;;;19.36;67.76
7333;BME280;3707;43.618;25.342;2023-04-01T09:09:32;98893.38;;;19.69;70.90
7333;BME280;3707;43.618;25.342;2023-04-01T09:12:28;98891.03;;;19.84;69.71
7333;BME280;3707;43.618;25.342;2023-04-01T09:18:38;98887.00;;;19.75;71.02
7333;BME280;3707;43.618;25.342;2023-04-01T09:21:22;98838.84;;;19.53;73.13
7333;BME280;3707;43.618;25.342;2023-04-01T09:24:21;98877.22;;;19.78;77.59
7333;BME280;3707;43.618;25.342;2023-04-01T09:27:02;98873.72;;;19.78;75.94
7333;BME280;3707;43.618;25.342;2023-04-01T09:30:03;98884.28;;;19.11;78.66
7333;BME280;3707;43.618;25.342;2023-04-01T09:35:43;98883.19;;;18.47;78.97
7333;BME280;3707;43.618;25.342;2023-04-01T09:38:21;98887.47;;;19.19;76.75
7333;BME280;3707;43.618;25.342;2023-04-01T09:40:54;98887.06;;;19.73;71.59
7333;BME280;3707;43.618;25.342;2023-04-01T09:43:25;98892.31;;;20.15;66.82
7333;BME280;3707;43.618;25.342;2023-04-01T09:46:03;98894.97;;;20.36;64.41
7333;BME280;3707;43.618;25.342;2023-04-01T09:52:00;98890.22;;;19.38;69.19
7333;BME280;3707;43.618;25.342;2023-04-01T09:54:45;98882.94;;;19.01;69.61
7333;BME280;3707;43.618;25.342;2023-04-01T10:00:28;98872.16;;;18.86;83.50
7333;BME280;3707;43.618;25.342;2023-04-01T10:03:23;98861.31;;;18.71;86.06
7333;BME280;3707;43.618;25.342;2023-04-01T10:06:22;98858.03;;;19.11;89.82
7333;BME280;3707;43.618;25.342;2023-04-01T10:12:23;98856.31;;;19.10;79.21
7333;BME280;3707;43.618;25.342;2023-04-01T10:18:22;98845.22;;;19.02;73.08
7333;BME280;3707;43.618;25.342;2023-04-01T10:24:23;98850.88;;;19.15;66.90
7333;BME280;3707;43.618;25.342;2023-04-01T10:27:09;98848.44;;;18.87;64.30
7333;BME280;3707;43.618;25.342;2023-04-01T10:30:13;98849.47;;;18.37;66.94
7333;BME280;3707;43.618;25.342;2023-04-01T10:33:37;98832.97;;;19.24;63.79
7333;BME280;3707;43.618;25.342;2023-04-01T10:36:39;98837.03;;;18.88;65.37
7333;BME280;3707;43.618;25.342;2023-04-01T10:55:19;98801.41;;;18.34;69.57
7333;BME280;3707;43.618;25.342;2023-04-01T10:58:35;98808.13;;;18.88;69.93
7333;BME280;3707;43.618;25.342;2023-04-01T11:01:27;98801.28;;;18.84;69.17
7333;BME280;3707;43.618;25.342;2023-04-01T11:04:32;98802.41;;;18.30;72.39
7333;BME280;3707;43.618;25.342;2023-04-01T11:10:54;98794.41;;;17.87;77.52
7333;BME280;3707;43.618;25.342;2023-04-01T11:13:58;98770.69;;;17.90;78.96
7333;BME280;3707;43.618;25.342;2023-04-01T11:16:54;98779.94;;;18.00;79.00
7333;BME280;3707;43.618;25.342;2023-04-01T11:19:46;98783.31;;;18.27;75.86
7333;BME280;3707;43.618;25.342;2023-04-01T11:22:48;98773.50;;;18.78;73.58
7333;BME280;3707;43.618;25.342;2023-04-01T11:25:48;98765.03;;;19.15;71.63
7333;BME280;3707;43.618;25.342;2023-04-01T11:28:37;98768.00;;;19.28;69.08
7333;BME280;3707;43.618;25.342;2023-04-01T11:34:28;98746.19;;;19.26;69.08
7333;BME280;3707;43.618;25.342;2023-04-01T11:37:05;98752.53;;;18.99;68.67
7333;BME280;3707;43.618;25.342;2023-04-01T11:39:41;98761.22;;;19.22;68.47
7333;BME280;3707;43.618;25.342;2023-04-01T11:42:20;98764.63;;;18.81;68.44
7333;BME280;3707;43.618;25.342;2023-04-01T11:44:55;98759.66;;;18.52;70.36
7333;BME280;3707;43.618;25.342;2023-04-01T11:47:41;98750.72;;;18.79;70.38
7333;BME280;3707;43.618;25.342;2023-04-01T11:50:20;98750.59;;;19.04;70.83
7333;BME280;3707;43.618;25.342;2023-04-01T11:53:17;98746.06;;;19.07;70.04
7333;BME280;3707;43.618;25.342;2023-04-01T11:56:02;98753.84;;;19.30;69.79
7333;BME280;3707;43.618;25.342;2023-04-01T11:58:58;98697.16;;;18.83;71.09
7333;BME280;3707;43.618;25.342;2023-04-01T12:01:40;98737.50;;;19.02;71.98
7333;BME280;3707;43.618;25.342;2023-04-01T12:04:35;98744.59;;;19.22;73.41
7333;BME280;3707;43.618;25.342;2023-04-01T12:07:15;98750.44;;;19.28;72.07
7333;BME280;3707;43.618;25.342;2023-04-01T12:09:52;98737.09;;;19.55;69.85
7333;BME280;3707;43.618;25.342;2023-04-01T12:12:29;98740.88;;;19.48;68.69
7333;BME280;3707;43.618;25.342;2023-04-01T12:15:14;98742.81;;;19.64;69.08
7333;BME280;3707;43.618;25.342;2023-04-01T12:17:47;98742.31;;;19.35;69.31
7333;BME280;3707;43.618;25.342;2023-04-01T12:20:37;98739.25;;;19.23;70.33
7333;BME280;3707;43.618;25.342;2023-04-01T12:23:20;98732.69;;;19.55;70.72
7333;BME280;3707;43.618;25.342;2023-04-01T12:26:01;98728.25;;;19.36;70.46
7333;BME280;3707;43.618;25.342;2023-04-01T12:28:43;98737.94;;;19.33;72.50
7333;BME280;3707;43.618;25.342;2023-04-01T12:31:22;98736.97;;;19.58;71.03
7333;BME280;3707;43.618;25.342;2023-04-01T12:36:52;98733.75;;;20.10;68.29
7333;BME280;3707;43.618;25.342;2023-04-01T12:39:44;98739.44;;;19.81;68.02
7333;BME280;3707;43.618;25.342;2023-04-01T12:42:29;98740.50;;;19.77;68.11
7333;BME280;3707;43.618;25.342;2023-04-01T12:48:01;98750.06;;;19.38;69.07
7333;BME280;3707;43.618;25.342;2023-04-01T12:51:05;98743.22;;;19.33;70.62
7333;BME280;3707;43.618;25.342;2023-04-01T12:53:58;98742.28;;;19.14;70.93
7333;BME280;3707;43.618;25.342;2023-04-01T12:56:41;98742.53;;;19.08;71.39
7333;BME280;3707;43.618;25.342;2023-04-01T12:59:27;98708.59;;;18.82;73.74
7333;BME280;3707;43.618;25.342;2023-04-01T13:02:08;98726.78;;;18.87;77.03
7333;BME280;3707;43.618;25.342;2023-04-01T13:05:19;98722.88;;;18.75;77.62
7333;BME280;3707;43.618;25.342;2023-04-01T13:08:13;98723.00;;;18.72;82.32
7333;BME280;3707;43.618;25.342;2023-04-01T13:10:56;98712.13;;;18.36;83.54
7333;BME280;3707;43.618;25.342;2023-04-01T13:13:41;98709.72;;;18.30;84.53
7333;BME280;3707;43.618;25.342;2023-04-01T13:16:16;98711.84;;;18.20;85.09
7333;BME280;3707;43.618;25.342;2023-04-01T13:18:56;98680.72;;;17.88;86.66
7333;BME280;3707;43.618;25.342;2023-04-01T13:21:34;98712.06;;;17.91;89.35
7333;BME280;3707;43.618;25.342;2023-04-01T13:24:10;98702.97;;;17.76;92.23
7333;BME280;3707;43.618;25.342;2023-04-01T13:26:48;98705.91;;;17.92;91.90
7333;BME280;3707;43.618;25.342;2023-04-01T13:29:23;98713.22;;;17.59;92.02
7333;BME280;3707;43.618;25.342;2023-04-01T13:32:03;98716.66;;;17.61;92.79
7333;BME280;3707;43.618;25.342;2023-04-01T13:34:48;98693.03;;;17.37;94.62
7333;BME280;3707;43.618;25.342;2023-04-01T13:37:32;98707.94;;;17.34;96.62
7333;BME280;3707;43.618;25.342;2023-04-01T13:43:11;98696.78;;;17.03;100.00
7333;BME280;3707;43.618;25.342;2023-04-01T13:46:05;98684.03;;;16.94;100.00
7333;BME280;3707;43.618;25.342;2023-04-01T13:48:50;98698.91;;;17.18;100.00
7333;BME280;3707;43.618;25.342;2023-04-01T13:51:37;98697.22;;;17.16;100.00
7333;BME280;3707;43.618;25.342;2023-04-01T13:54:28;98703.72;;;17.30;100.00
7333;BME280;3707;43.618;25.342;2023-04-01T13:57:14;98705.31;;;17.34;100.00
7333;BME280;3707;43.618;25.342;2023-04-01T14:00:00;98694.38;;;16.97;100.00
7333;BME280;3707;43.618;25.342;2023-04-01T14:02:47;98707.19;;;16.80;100.00
7333;BME280;3707;43.618;25.342;2023-04-01T14:05:44;98718.56;;;16.77;100.00
7333;BME280;3707;43.618;25.342;2023-04-01T14:08:23;98733.81;;;16.93;100.00
7333;BME280;3707;43.618;25.342;2023-04-01T14:11:07;98736.88;;;16.79;100.00
7333;BME280;3707;43.618;25.342;2023-04-01T14:13:41;98742.44;;;16.95;100.00
7333;BME280;3707;43.618;25.342;2023-04-01T14:16:35;98743.09;;;16.75;100.00
7333;BME280;3707;43.618;25.342;2023-04-01T14:19:21;98738.69;;;16.48;100.00
7333;BME280;3707;43.618;25.342;2023-04-01T14:21:58;98746.72;;;16.12;100.00
7333;BME280;3707;43.618;25.342;2023-04-01T14:24:50;98752.50;;;15.93;100.00
7333;BME280;3707;43.618;25.342;2023-04-01T14:27:30;98748.53;;;15.78;100.00
7333;BME280;3707;43.618;25.342;2023-04-01T14:30:19;98748.94;;;15.63;100.00
7333;BME280;3707;43.618;25.342;2023-04-01T14:32:57;98736.47;;;15.40;100.00
7333;BME280;3707;43.618;25.342;2023-04-01T14:35:36;98679.56;;;14.85;100.00
7333;BME280;3707;43.618;25.342;2023-04-01T14:38:39;98762.16;;;15.23;100.00
7333;BME280;3707;43.618;25.342;2023-04-01T14:41:20;98769.44;;;15.10;100.00
7333;BME280;3707;43.618;25.342;2023-04-01T14:44:26;98762.88;;;14.94;100.00
7333;BME280;3707;43.618;25.342;2023-04-01T14:47:15;98757.78;;;14.88;100.00
7333;BME280;3707;43.618;25.342;2023-04-01T14:49:51;98757.22;;;14.75;100.00
7333;BME280;3707;43.618;25.342;2023-04-01T14:52:24;98751.31;;;14.67;100.00
7333;BME280;3707;43.618;25.342;2023-04-01T14:54:54;98759.28;;;14.61;100.00
7333;BME280;3707;43.618;25.342;2023-04-01T14:57:24;98753.28;;;14.58;100.00
7333;BME280;3707;43.618;25.342;2023-04-01T15:00:00;98712.94;;;14.34;100.00
7333;BME280;3707;43.618;25.342;2023-04-01T15:02:39;98739.53;;;14.50;100.00
7333;BME280;3707;43.618;25.342;2023-04-01T15:05:15;98729.03;;;14.54;100.00